Aérodrome :
LOGIN :

S'inscrire | Disclaimer

   EN    FR    IT 

 










Légende :    VFR   VFR Marginal   IFR   IFR Intensif   IFR Très Intensif
Visi : 
Plafond : 
>= 8 km
>= 3000ft
5 à 8 km
1000 à 3000 ft
1500m à 5 km
500 à 1000 ft
800 à 1500m
200 à 500 ft
< 800m
< 200 ft
Symboles :   Orages  Brouillard  Fortes neiges  Fortes précipitations  Vent > 20 kt
SIGMETs :   Divers  Orages  Givrage  Turbulence  Onde Orograph.  Cendres Volcan.






- Altitude de l'aérodrome : 16 ft
- Code IATA : EAS


LESO - San Sebastian Fuenterrabia

DERNIER METAR :
  • 200430Z 20003KT 170V230 CAVOK 11/09 Q1015

METARs EXPIRÉS :
  • 200400Z 18003KT 140V210 CAVOK 11/08 Q1015
  • 200330Z 22003KT CAVOK 11/09 Q1015
  • 200300Z AUTO 21003KT CAVOK 11/09 Q1015
  • 200230Z AUTO 19003KT 160V230 CAVOK 12/09 Q1016
  • 200200Z AUTO 00000KT CAVOK 12/08 Q1016

TAF TAF LESO
Valide du 20 à 00h jusqu'au 21 à 00h UTC


192300Z 2000/2024 VRB05KT 9999 FEW040 TX18/2014Z TN09/2006Z
PROB30
TEMPO 2000/2008 3000 BR BKN010
PROB30
TEMPO 2012/2018 33010KT



MET'MAP, la Météo Aéronautique d'un coup d'oeil ! - Copyright ORBIFLY Décembre 2007 - Disclaimer

ORBIFLY MET'MAP TEAM :

Programmation & Développement : Alexandra Zaïnal
Sur une idée originale de : Baudouin d'Aumeries
Assistance à la programmation : Marc-Olivier Méhu
Soutien technique & logistique : Manuel Goepfert

Contact : metmap@orbifly.com




SOURCES & CREDITS :

   NOAA